sensor_id;sensor_type;location;lat;lon;timestamp;P1;durP1;ratioP1;P2;durP2;ratioP2
14768;SDS011;7476;49.404;11.152;2022-10-14T00:01:30;17.63;;;10.83;;
14768;SDS011;7476;49.404;11.152;2022-10-14T00:03:59;16.67;;;11.40;;
14768;SDS011;7476;49.404;11.152;2022-10-14T00:06:27;16.23;;;11.73;;
14768;SDS011;7476;49.404;11.152;2022-10-14T00:08:55;15.37;;;11.17;;
14768;SDS011;7476;49.404;11.152;2022-10-14T00:11:25;14.43;;;10.47;;
14768;SDS011;7476;49.404;11.152;2022-10-14T00:13:53;13.40;;;10.03;;
14768;SDS011;7476;49.404;11.152;2022-10-14T00:16:21;20.13;;;11.07;;
14768;SDS011;7476;49.404;11.152;2022-10-14T00:18:49;14.60;;;11.00;;
14768;SDS011;7476;49.404;11.152;2022-10-14T00:21:17;14.40;;;11.07;;
14768;SDS011;7476;49.404;11.152;2022-10-14T00:23:45;16.13;;;11.63;;
14768;SDS011;7476;49.404;11.152;2022-10-14T00:26:13;13.77;;;11.40;;
14768;SDS011;7476;49.404;11.152;2022-10-14T00:28:42;15.63;;;11.10;;
14768;SDS011;7476;49.404;11.152;2022-10-14T00:31:08;15.23;;;11.73;;
14768;SDS011;7476;49.404;11.152;2022-10-14T00:33:35;13.30;;;10.53;;
14768;SDS011;7476;49.404;11.152;2022-10-14T00:36:03;17.67;;;10.87;;
14768;SDS011;7476;49.404;11.152;2022-10-14T00:38:32;12.60;;;10.57;;
14768;SDS011;7476;49.404;11.152;2022-10-14T00:41:00;17.17;;;11.17;;
14768;SDS011;7476;49.404;11.152;2022-10-14T00:43:27;17.43;;;11.80;;
14768;SDS011;7476;49.404;11.152;2022-10-14T00:45:55;15.97;;;11.13;;
14768;SDS011;7476;49.404;11.152;2022-10-14T00:48:22;18.17;;;12.43;;
14768;SDS011;7476;49.404;11.152;2022-10-14T00:50:51;17.13;;;12.53;;
14768;SDS011;7476;49.404;11.152;2022-10-14T00:53:20;16.47;;;11.40;;
14768;SDS011;7476;49.404;11.152;2022-10-14T00:55:48;17.03;;;11.97;;
14768;SDS011;7476;49.404;11.152;2022-10-14T00:58:15;19.27;;;12.53;;
14768;SDS011;7476;49.404;11.152;2022-10-14T01:00:42;18.47;;;12.03;;
14768;SDS011;7476;49.404;11.152;2022-10-14T01:03:09;18.27;;;11.43;;
14768;SDS011;7476;49.404;11.152;2022-10-14T01:05:44;18.63;;;11.90;;
14768;SDS011;7476;49.404;11.152;2022-10-14T01:08:16;15.67;;;11.53;;
14768;SDS011;7476;49.404;11.152;2022-10-14T01:10:52;18.00;;;12.17;;
14768;SDS011;7476;49.404;11.152;2022-10-14T01:13:26;14.27;;;11.87;;
14768;SDS011;7476;49.404;11.152;2022-10-14T01:16:00;17.43;;;12.10;;
14768;SDS011;7476;49.404;11.152;2022-10-14T01:18:38;17.93;;;13.43;;
14768;SDS011;7476;49.404;11.152;2022-10-14T01:21:14;20.50;;;14.07;;
14768;SDS011;7476;49.404;11.152;2022-10-14T01:26:50;19.47;;;14.17;;
14768;SDS011;7476;49.404;11.152;2022-10-14T01:32:35;22.10;;;15.00;;
14768;SDS011;7476;49.404;11.152;2022-10-14T01:35:10;20.37;;;15.43;;
14768;SDS011;7476;49.404;11.152;2022-10-14T01:37:45;24.43;;;16.03;;
14768;SDS011;7476;49.404;11.152;2022-10-14T01:40:20;20.70;;;14.20;;
14768;SDS011;7476;49.404;11.152;2022-10-14T01:42:51;19.43;;;13.63;;
14768;SDS011;7476;49.404;11.152;2022-10-14T01:45:21;23.03;;;14.33;;
14768;SDS011;7476;49.404;11.152;2022-10-14T01:47:49;21.43;;;15.13;;
14768;SDS011;7476;49.404;11.152;2022-10-14T01:50:19;19.53;;;14.83;;
14768;SDS011;7476;49.404;11.152;2022-10-14T01:52:50;19.43;;;14.27;;
14768;SDS011;7476;49.404;11.152;2022-10-14T01:55:22;19.07;;;13.67;;
14768;SDS011;7476;49.404;11.152;2022-10-14T01:57:52;22.47;;;15.00;;
14768;SDS011;7476;49.404;11.152;2022-10-14T02:00:23;19.73;;;13.90;;
14768;SDS011;7476;49.404;11.152;2022-10-14T02:02:50;23.20;;;15.07;;
14768;SDS011;7476;49.404;11.152;2022-10-14T02:05:17;19.60;;;14.33;;
14768;SDS011;7476;49.404;11.152;2022-10-14T02:07:49;19.77;;;14.27;;
14768;SDS011;7476;49.404;11.152;2022-10-14T02:10:24;23.37;;;15.83;;
14768;SDS011;7476;49.404;11.152;2022-10-14T02:13:02;19.60;;;13.73;;
14768;SDS011;7476;49.404;11.152;2022-10-14T02:15:44;23.73;;;15.07;;
14768;SDS011;7476;49.404;11.152;2022-10-14T02:18:21;27.80;;;14.47;;
14768;SDS011;7476;49.404;11.152;2022-10-14T02:20:55;21.70;;;14.60;;
14768;SDS011;7476;49.404;11.152;2022-10-14T02:23:28;20.43;;;15.10;;
14768;SDS011;7476;49.404;11.152;2022-10-14T02:26:00;20.67;;;14.47;;
14768;SDS011;7476;49.404;11.152;2022-10-14T02:28:27;22.43;;;14.90;;
14768;SDS011;7476;49.404;11.152;2022-10-14T02:30:58;20.57;;;15.40;;
14768;SDS011;7476;49.404;11.152;2022-10-14T02:33:30;20.80;;;15.03;;
14768;SDS011;7476;49.404;11.152;2022-10-14T02:36:00;22.30;;;14.70;;
14768;SDS011;7476;49.404;11.152;2022-10-14T02:38:28;19.87;;;14.70;;
14768;SDS011;7476;49.404;11.152;2022-10-14T02:40:56;21.10;;;15.07;;
14768;SDS011;7476;49.404;11.152;2022-10-14T02:43:27;21.20;;;14.30;;
14768;SDS011;7476;49.404;11.152;2022-10-14T02:45:55;23.23;;;15.07;;
14768;SDS011;7476;49.404;11.152;2022-10-14T02:48:24;19.70;;;15.30;;
14768;SDS011;7476;49.404;11.152;2022-10-14T02:50:51;23.93;;;15.47;;
14768;SDS011;7476;49.404;11.152;2022-10-14T02:53:18;20.63;;;16.00;;
14768;SDS011;7476;49.404;11.152;2022-10-14T02:55:45;19.27;;;13.80;;
14768;SDS011;7476;49.404;11.152;2022-10-14T02:58:11;22.10;;;15.17;;
14768;SDS011;7476;49.404;11.152;2022-10-14T03:00:38;17.93;;;14.17;;
14768;SDS011;7476;49.404;11.152;2022-10-14T03:03:06;19.70;;;14.60;;
14768;SDS011;7476;49.404;11.152;2022-10-14T03:05:33;20.90;;;14.67;;
14768;SDS011;7476;49.404;11.152;2022-10-14T03:08:00;21.63;;;15.53;;
14768;SDS011;7476;49.404;11.152;2022-10-14T03:10:27;18.77;;;14.33;;
14768;SDS011;7476;49.404;11.152;2022-10-14T03:12:53;20.53;;;14.40;;
14768;SDS011;7476;49.404;11.152;2022-10-14T03:15:20;19.23;;;14.67;;
14768;SDS011;7476;49.404;11.152;2022-10-14T03:17:47;25.30;;;16.47;;
14768;SDS011;7476;49.404;11.152;2022-10-14T03:20:15;22.07;;;15.13;;
14768;SDS011;7476;49.404;11.152;2022-10-14T03:22:42;18.13;;;13.87;;
14768;SDS011;7476;49.404;11.152;2022-10-14T03:25:08;19.17;;;13.63;;
14768;SDS011;7476;49.404;11.152;2022-10-14T03:27:35;17.20;;;13.27;;
14768;SDS011;7476;49.404;11.152;2022-10-14T03:30:02;19.13;;;14.37;;
14768;SDS011;7476;49.404;11.152;2022-10-14T03:32:29;19.97;;;14.37;;
14768;SDS011;7476;49.404;11.152;2022-10-14T03:34:56;25.27;;;14.20;;
14768;SDS011;7476;49.404;11.152;2022-10-14T03:37:24;18.70;;;14.73;;
14768;SDS011;7476;49.404;11.152;2022-10-14T03:39:51;23.10;;;15.93;;
14768;SDS011;7476;49.404;11.152;2022-10-14T03:42:17;23.20;;;15.77;;
14768;SDS011;7476;49.404;11.152;2022-10-14T03:44:44;21.40;;;15.20;;
14768;SDS011;7476;49.404;11.152;2022-10-14T03:47:11;23.90;;;16.83;;
14768;SDS011;7476;49.404;11.152;2022-10-14T03:49:37;18.67;;;14.57;;
14768;SDS011;7476;49.404;11.152;2022-10-14T03:52:04;19.87;;;13.77;;
14768;SDS011;7476;49.404;11.152;2022-10-14T03:54:32;24.37;;;15.37;;
14768;SDS011;7476;49.404;11.152;2022-10-14T03:56:59;21.73;;;15.07;;
14768;SDS011;7476;49.404;11.152;2022-10-14T03:59:26;25.13;;;15.43;;
14768;SDS011;7476;49.404;11.152;2022-10-14T04:01:52;22.87;;;15.50;;
14768;SDS011;7476;49.404;11.152;2022-10-14T04:04:19;24.37;;;15.63;;
14768;SDS011;7476;49.404;11.152;2022-10-14T04:06:46;21.93;;;16.87;;
14768;SDS011;7476;49.404;11.152;2022-10-14T04:09:12;25.37;;;17.63;;
14768;SDS011;7476;49.404;11.152;2022-10-14T04:11:40;22.50;;;16.10;;
14768;SDS011;7476;49.404;11.152;2022-10-14T04:14:07;30.17;;;19.23;;
14768;SDS011;7476;49.404;11.152;2022-10-14T04:16:34;26.37;;;19.17;;
14768;SDS011;7476;49.404;11.152;2022-10-14T04:19:01;26.47;;;17.83;;
14768;SDS011;7476;49.404;11.152;2022-10-14T04:21:28;24.83;;;17.93;;
14768;SDS011;7476;49.404;11.152;2022-10-14T04:23:55;25.60;;;16.37;;
14768;SDS011;7476;49.404;11.152;2022-10-14T04:26:21;23.53;;;16.93;;
14768;SDS011;7476;49.404;11.152;2022-10-14T04:28:49;27.53;;;18.47;;
14768;SDS011;7476;49.404;11.152;2022-10-14T04:31:16;24.40;;;18.40;;
14768;SDS011;7476;49.404;11.152;2022-10-14T04:33:43;27.33;;;17.93;;
14768;SDS011;7476;49.404;11.152;2022-10-14T04:36:09;27.00;;;18.23;;
14768;SDS011;7476;49.404;11.152;2022-10-14T04:38:36;24.70;;;17.40;;
14768;SDS011;7476;49.404;11.152;2022-10-14T04:41:03;30.50;;;18.23;;
14768;SDS011;7476;49.404;11.152;2022-10-14T04:43:30;25.17;;;18.03;;
14768;SDS011;7476;49.404;11.152;2022-10-14T04:45:58;26.17;;;18.20;;
14768;SDS011;7476;49.404;11.152;2022-10-14T04:48:24;24.73;;;18.07;;
14768;SDS011;7476;49.404;11.152;2022-10-14T04:50:52;25.87;;;17.80;;
14768;SDS011;7476;49.404;11.152;2022-10-14T04:53:19;25.57;;;17.80;;
14768;SDS011;7476;49.404;11.152;2022-10-14T04:55:46;26.40;;;17.30;;
14768;SDS011;7476;49.404;11.152;2022-10-14T04:58:13;24.23;;;16.80;;
14768;SDS011;7476;49.404;11.152;2022-10-14T05:00:41;24.03;;;17.50;;
14768;SDS011;7476;49.404;11.152;2022-10-14T05:03:09;22.97;;;17.33;;
14768;SDS011;7476;49.404;11.152;2022-10-14T05:05:36;26.17;;;17.20;;
14768;SDS011;7476;49.404;11.152;2022-10-14T05:08:03;22.80;;;17.53;;
14768;SDS011;7476;49.404;11.152;2022-10-14T05:10:30;25.07;;;17.50;;
14768;SDS011;7476;49.404;11.152;2022-10-14T05:12:56;24.60;;;18.00;;
14768;SDS011;7476;49.404;11.152;2022-10-14T05:15:23;25.50;;;19.40;;
14768;SDS011;7476;49.404;11.152;2022-10-14T05:17:50;24.57;;;18.83;;
14768;SDS011;7476;49.404;11.152;2022-10-14T05:20:18;26.23;;;17.33;;
14768;SDS011;7476;49.404;11.152;2022-10-14T05:22:45;26.97;;;18.23;;
14768;SDS011;7476;49.404;11.152;2022-10-14T05:25:12;29.57;;;18.80;;
14768;SDS011;7476;49.404;11.152;2022-10-14T05:27:39;29.03;;;18.37;;
14768;SDS011;7476;49.404;11.152;2022-10-14T05:30:06;30.50;;;19.43;;
14768;SDS011;7476;49.404;11.152;2022-10-14T05:32:33;30.10;;;20.27;;
14768;SDS011;7476;49.404;11.152;2022-10-14T05:35:01;28.20;;;18.77;;
14768;SDS011;7476;49.404;11.152;2022-10-14T05:37:29;31.30;;;19.50;;
14768;SDS011;7476;49.404;11.152;2022-10-14T05:39:56;30.13;;;19.20;;
14768;SDS011;7476;49.404;11.152;2022-10-14T05:42:22;27.73;;;18.87;;
14768;SDS011;7476;49.404;11.152;2022-10-14T05:44:49;26.73;;;18.83;;
14768;SDS011;7476;49.404;11.152;2022-10-14T05:47:16;22.63;;;17.13;;
14768;SDS011;7476;49.404;11.152;2022-10-14T05:49:43;24.83;;;18.07;;
14768;SDS011;7476;49.404;11.152;2022-10-14T05:52:10;28.43;;;19.27;;
14768;SDS011;7476;49.404;11.152;2022-10-14T05:54:38;28.37;;;19.33;;
14768;SDS011;7476;49.404;11.152;2022-10-14T05:57:04;31.57;;;20.03;;
14768;SDS011;7476;49.404;11.152;2022-10-14T05:59:31;28.53;;;19.17;;
14768;SDS011;7476;49.404;11.152;2022-10-14T06:01:58;29.10;;;20.20;;
14768;SDS011;7476;49.404;11.152;2022-10-14T06:04:25;25.53;;;18.53;;
14768;SDS011;7476;49.404;11.152;2022-10-14T06:06:52;28.87;;;18.67;;
14768;SDS011;7476;49.404;11.152;2022-10-14T06:09:19;24.13;;;19.17;;
14768;SDS011;7476;49.404;11.152;2022-10-14T06:11:47;25.77;;;18.73;;
14768;SDS011;7476;49.404;11.152;2022-10-14T06:14:14;28.33;;;19.60;;
14768;SDS011;7476;49.404;11.152;2022-10-14T06:16:40;27.63;;;18.67;;
14768;SDS011;7476;49.404;11.152;2022-10-14T06:19:07;26.47;;;19.40;;
14768;SDS011;7476;49.404;11.152;2022-10-14T06:21:34;24.33;;;18.27;;
14768;SDS011;7476;49.404;11.152;2022-10-14T06:24:00;27.03;;;19.13;;
14768;SDS011;7476;49.404;11.152;2022-10-14T06:26:27;24.90;;;18.57;;
14768;SDS011;7476;49.404;11.152;2022-10-14T06:28:55;30.37;;;18.13;;
14768;SDS011;7476;49.404;11.152;2022-10-14T06:31:22;24.63;;;17.57;;
14768;SDS011;7476;49.404;11.152;2022-10-14T06:33:49;27.17;;;18.77;;
14768;SDS011;7476;49.404;11.152;2022-10-14T06:36:16;21.20;;;15.47;;
14768;SDS011;7476;49.404;11.152;2022-10-14T06:38:42;23.87;;;15.97;;
14768;SDS011;7476;49.404;11.152;2022-10-14T06:41:09;21.30;;;15.97;;
14768;SDS011;7476;49.404;11.152;2022-10-14T06:43:36;23.53;;;14.40;;
14768;SDS011;7476;49.404;11.152;2022-10-14T06:46:04;27.23;;;16.43;;
14768;SDS011;7476;49.404;11.152;2022-10-14T06:48:31;21.50;;;15.23;;
14768;SDS011;7476;49.404;11.152;2022-10-14T06:50:58;23.40;;;16.20;;
14768;SDS011;7476;49.404;11.152;2022-10-14T06:53:25;23.73;;;17.00;;
14768;SDS011;7476;49.404;11.152;2022-10-14T06:55:56;24.97;;;16.67;;
14768;SDS011;7476;49.404;11.152;2022-10-14T06:58:24;21.63;;;16.07;;
14768;SDS011;7476;49.404;11.152;2022-10-14T07:00:51;29.27;;;17.83;;
14768;SDS011;7476;49.404;11.152;2022-10-14T07:03:19;23.00;;;17.63;;
14768;SDS011;7476;49.404;11.152;2022-10-14T07:05:46;28.60;;;18.23;;
14768;SDS011;7476;49.404;11.152;2022-10-14T07:08:13;25.97;;;18.27;;
14768;SDS011;7476;49.404;11.152;2022-10-14T07:10:39;25.17;;;16.93;;
14768;SDS011;7476;49.404;11.152;2022-10-14T07:13:06;27.87;;;19.50;;
14768;SDS011;7476;49.404;11.152;2022-10-14T07:15:33;28.20;;;19.13;;
14768;SDS011;7476;49.404;11.152;2022-10-14T07:18:00;26.03;;;19.10;;
14768;SDS011;7476;49.404;11.152;2022-10-14T07:20:28;25.80;;;19.30;;
14768;SDS011;7476;49.404;11.152;2022-10-14T07:22:54;28.47;;;20.67;;
14768;SDS011;7476;49.404;11.152;2022-10-14T07:25:21;26.97;;;20.37;;
14768;SDS011;7476;49.404;11.152;2022-10-14T07:27:50;30.63;;;21.13;;
14768;SDS011;7476;49.404;11.152;2022-10-14T07:30:18;30.33;;;20.87;;
14768;SDS011;7476;49.404;11.152;2022-10-14T07:32:45;29.97;;;20.33;;
14768;SDS011;7476;49.404;11.152;2022-10-14T07:35:12;25.77;;;20.33;;
14768;SDS011;7476;49.404;11.152;2022-10-14T07:37:40;29.13;;;20.40;;
14768;SDS011;7476;49.404;11.152;2022-10-14T07:40:07;30.47;;;20.00;;
14768;SDS011;7476;49.404;11.152;2022-10-14T07:42:35;25.53;;;18.40;;
14768;SDS011;7476;49.404;11.152;2022-10-14T07:45:03;26.57;;;18.43;;
14768;SDS011;7476;49.404;11.152;2022-10-14T07:47:31;26.03;;;19.40;;
14768;SDS011;7476;49.404;11.152;2022-10-14T07:49:58;25.50;;;19.07;;
14768;SDS011;7476;49.404;11.152;2022-10-14T07:52:25;24.17;;;18.07;;
14768;SDS011;7476;49.404;11.152;2022-10-14T07:54:54;27.80;;;18.73;;
14768;SDS011;7476;49.404;11.152;2022-10-14T07:57:20;27.67;;;18.03;;
14768;SDS011;7476;49.404;11.152;2022-10-14T07:59:47;26.73;;;18.67;;
14768;SDS011;7476;49.404;11.152;2022-10-14T08:02:16;22.87;;;18.57;;
14768;SDS011;7476;49.404;11.152;2022-10-14T08:04:43;23.20;;;17.60;;
14768;SDS011;7476;49.404;11.152;2022-10-14T08:07:09;24.80;;;16.90;;
14768;SDS011;7476;49.404;11.152;2022-10-14T08:09:38;24.90;;;18.40;;
14768;SDS011;7476;49.404;11.152;2022-10-14T08:12:06;25.60;;;18.63;;
14768;SDS011;7476;49.404;11.152;2022-10-14T08:14:33;24.93;;;17.60;;
14768;SDS011;7476;49.404;11.152;2022-10-14T08:17:00;24.60;;;18.23;;
14768;SDS011;7476;49.404;11.152;2022-10-14T08:19:26;23.57;;;17.40;;
14768;SDS011;7476;49.404;11.152;2022-10-14T08:21:53;25.93;;;18.07;;
14768;SDS011;7476;49.404;11.152;2022-10-14T08:24:20;24.90;;;17.60;;
14768;SDS011;7476;49.404;11.152;2022-10-14T08:26:48;25.07;;;18.67;;
14768;SDS011;7476;49.404;11.152;2022-10-14T08:29:17;24.17;;;17.43;;
14768;SDS011;7476;49.404;11.152;2022-10-14T08:31:46;25.77;;;16.73;;
14768;SDS011;7476;49.404;11.152;2022-10-14T08:34:13;22.83;;;17.20;;
14768;SDS011;7476;49.404;11.152;2022-10-14T08:36:40;21.67;;;17.27;;
14768;SDS011;7476;49.404;11.152;2022-10-14T08:39:06;19.70;;;16.77;;
14768;SDS011;7476;49.404;11.152;2022-10-14T08:41:37;20.43;;;16.10;;
14768;SDS011;7476;49.404;11.152;2022-10-14T08:44:24;27.30;;;15.50;;
14768;SDS011;7476;49.404;11.152;2022-10-14T08:46:52;22.67;;;16.47;;
14768;SDS011;7476;49.404;11.152;2022-10-14T08:49:23;23.10;;;15.27;;
14768;SDS011;7476;49.404;11.152;2022-10-14T08:51:55;21.40;;;14.60;;
14768;SDS011;7476;49.404;11.152;2022-10-14T08:54:28;18.27;;;14.07;;
14768;SDS011;7476;49.404;11.152;2022-10-14T08:57:01;17.43;;;13.13;;
14768;SDS011;7476;49.404;11.152;2022-10-14T08:59:30;19.40;;;13.43;;
14768;SDS011;7476;49.404;11.152;2022-10-14T09:02:01;15.77;;;12.27;;
14768;SDS011;7476;49.404;11.152;2022-10-14T09:04:40;16.40;;;12.17;;
14768;SDS011;7476;49.404;11.152;2022-10-14T09:07:08;15.47;;;11.20;;
14768;SDS011;7476;49.404;11.152;2022-10-14T09:09:42;15.40;;;11.37;;
14768;SDS011;7476;49.404;11.152;2022-10-14T09:12:13;14.97;;;11.27;;
14768;SDS011;7476;49.404;11.152;2022-10-14T09:14:48;14.03;;;11.30;;
14768;SDS011;7476;49.404;11.152;2022-10-14T09:17:24;14.37;;;10.60;;
14768;SDS011;7476;49.404;11.152;2022-10-14T09:20:03;12.93;;;10.17;;
14768;SDS011;7476;49.404;11.152;2022-10-14T09:22:38;12.03;;;10.43;;
14768;SDS011;7476;49.404;11.152;2022-10-14T09:25:07;13.80;;;10.07;;
14768;SDS011;7476;49.404;11.152;2022-10-14T09:27:38;14.73;;;9.37;;
14768;SDS011;7476;49.404;11.152;2022-10-14T09:30:08;10.03;;;8.83;;
14768;SDS011;7476;49.404;11.152;2022-10-14T09:32:40;10.50;;;9.10;;
14768;SDS011;7476;49.404;11.152;2022-10-14T09:35:12;11.20;;;8.63;;
14768;SDS011;7476;49.404;11.152;2022-10-14T09:37:40;9.93;;;8.20;;
14768;SDS011;7476;49.404;11.152;2022-10-14T09:40:09;12.63;;;8.10;;
14768;SDS011;7476;49.404;11.152;2022-10-14T09:42:46;11.23;;;8.93;;
14768;SDS011;7476;49.404;11.152;2022-10-14T09:45:18;10.90;;;8.50;;
14768;SDS011;7476;49.404;11.152;2022-10-14T09:47:50;9.83;;;8.17;;
14768;SDS011;7476;49.404;11.152;2022-10-14T09:50:24;9.20;;;7.70;;
14768;SDS011;7476;49.404;11.152;2022-10-14T09:52:55;10.00;;;7.03;;
14768;SDS011;7476;49.404;11.152;2022-10-14T09:55:27;12.37;;;7.93;;
14768;SDS011;7476;49.404;11.152;2022-10-14T09:57:57;14.97;;;9.27;;
14768;SDS011;7476;49.404;11.152;2022-10-14T10:00:35;8.23;;;7.33;;
14768;SDS011;7476;49.404;11.152;2022-10-14T10:03:03;9.03;;;6.97;;
14768;SDS011;7476;49.404;11.152;2022-10-14T10:05:31;8.77;;;7.57;;
14768;SDS011;7476;49.404;11.152;2022-10-14T10:08:00;11.87;;;7.60;;
14768;SDS011;7476;49.404;11.152;2022-10-14T10:10:30;11.27;;;6.97;;
14768;SDS011;7476;49.404;11.152;2022-10-14T10:12:59;9.80;;;6.60;;
14768;SDS011;7476;49.404;11.152;2022-10-14T10:15:26;7.83;;;6.90;;
14768;SDS011;7476;49.404;11.152;2022-10-14T10:17:54;8.03;;;6.93;;
14768;SDS011;7476;49.404;11.152;2022-10-14T10:20:22;11.03;;;7.17;;
14768;SDS011;7476;49.404;11.152;2022-10-14T10:22:57;8.50;;;6.27;;
14768;SDS011;7476;49.404;11.152;2022-10-14T10:25:41;8.57;;;6.97;;
14768;SDS011;7476;49.404;11.152;2022-10-14T10:28:14;8.97;;;7.30;;
14768;SDS011;7476;49.404;11.152;2022-10-14T10:30:42;11.30;;;7.33;;
14768;SDS011;7476;49.404;11.152;2022-10-14T10:33:20;10.57;;;7.50;;
14768;SDS011;7476;49.404;11.152;2022-10-14T10:35:56;11.67;;;7.53;;
14768;SDS011;7476;49.404;11.152;2022-10-14T10:38:45;9.80;;;7.10;;
14768;SDS011;7476;49.404;11.152;2022-10-14T10:41:23;9.30;;;7.83;;
14768;SDS011;7476;49.404;11.152;2022-10-14T10:44:06;8.40;;;6.40;;
14768;SDS011;7476;49.404;11.152;2022-10-14T10:52:52;10.07;;;6.43;;
14768;SDS011;7476;49.404;11.152;2022-10-14T10:55:32;6.97;;;6.27;;
14768;SDS011;7476;49.404;11.152;2022-10-14T10:58:07;7.03;;;6.40;;
14768;SDS011;7476;49.404;11.152;2022-10-14T11:00:50;7.80;;;5.70;;
14768;SDS011;7476;49.404;11.152;2022-10-14T11:03:32;8.37;;;6.03;;
14768;SDS011;7476;49.404;11.152;2022-10-14T11:06:11;7.33;;;6.10;;
14768;SDS011;7476;49.404;11.152;2022-10-14T11:09:02;7.10;;;5.63;;
14768;SDS011;7476;49.404;11.152;2022-10-14T11:11:50;7.10;;;5.77;;
14768;SDS011;7476;49.404;11.152;2022-10-14T11:14:45;6.80;;;6.17;;
14768;SDS011;7476;49.404;11.152;2022-10-14T11:17:25;7.30;;;5.70;;
14768;SDS011;7476;49.404;11.152;2022-10-14T11:19:59;6.53;;;5.87;;
14768;SDS011;7476;49.404;11.152;2022-10-14T11:22:40;7.70;;;6.13;;
14768;SDS011;7476;49.404;11.152;2022-10-14T11:25:24;6.93;;;5.87;;
14768;SDS011;7476;49.404;11.152;2022-10-14T11:27:58;7.30;;;5.87;;
14768;SDS011;7476;49.404;11.152;2022-10-14T11:30:36;7.53;;;6.30;;
14768;SDS011;7476;49.404;11.152;2022-10-14T11:33:14;8.10;;;5.67;;
14768;SDS011;7476;49.404;11.152;2022-10-14T11:36:05;7.73;;;6.30;;
14768;SDS011;7476;49.404;11.152;2022-10-14T11:38:58;7.87;;;5.70;;
14768;SDS011;7476;49.404;11.152;2022-10-14T11:41:47;7.70;;;6.13;;
14768;SDS011;7476;49.404;11.152;2022-10-14T11:44:27;9.10;;;6.30;;
14768;SDS011;7476;49.404;11.152;2022-10-14T11:46:59;9.90;;;5.47;;
14768;SDS011;7476;49.404;11.152;2022-10-14T11:49:30;7.80;;;5.40;;
14768;SDS011;7476;49.404;11.152;2022-10-14T11:52:02;9.23;;;5.97;;
14768;SDS011;7476;49.404;11.152;2022-10-14T11:54:35;8.23;;;5.77;;
14768;SDS011;7476;49.404;11.152;2022-10-14T11:57:06;9.13;;;5.53;;
14768;SDS011;7476;49.404;11.152;2022-10-14T11:59:40;9.30;;;5.37;;
14768;SDS011;7476;49.404;11.152;2022-10-14T12:02:33;6.73;;;5.60;;
14768;SDS011;7476;49.404;11.152;2022-10-14T12:05:07;6.37;;;5.30;;
14768;SDS011;7476;49.404;11.152;2022-10-14T12:07:40;5.43;;;4.80;;
14768;SDS011;7476;49.404;11.152;2022-10-14T12:10:20;5.47;;;4.87;;
14768;SDS011;7476;49.404;11.152;2022-10-14T12:12:51;7.50;;;5.33;;
14768;SDS011;7476;49.404;11.152;2022-10-14T12:15:21;6.30;;;5.17;;
14768;SDS011;7476;49.404;11.152;2022-10-14T12:17:52;6.17;;;5.07;;
14768;SDS011;7476;49.404;11.152;2022-10-14T12:20:23;9.73;;;5.60;;
14768;SDS011;7476;49.404;11.152;2022-10-14T12:22:55;6.97;;;5.03;;
14768;SDS011;7476;49.404;11.152;2022-10-14T12:25:25;6.70;;;4.80;;
14768;SDS011;7476;49.404;11.152;2022-10-14T12:27:55;7.73;;;5.23;;
14768;SDS011;7476;49.404;11.152;2022-10-14T12:30:33;7.60;;;5.20;;
14768;SDS011;7476;49.404;11.152;2022-10-14T12:33:02;9.47;;;4.77;;
14768;SDS011;7476;49.404;11.152;2022-10-14T12:35:44;7.13;;;4.93;;
14768;SDS011;7476;49.404;11.152;2022-10-14T12:38:16;11.87;;;5.03;;
14768;SDS011;7476;49.404;11.152;2022-10-14T12:40:44;9.40;;;5.07;;
14768;SDS011;7476;49.404;11.152;2022-10-14T12:43:14;8.73;;;5.33;;
14768;SDS011;7476;49.404;11.152;2022-10-14T12:46:08;5.40;;;4.23;;
14768;SDS011;7476;49.404;11.152;2022-10-14T12:48:54;7.50;;;4.60;;
14768;SDS011;7476;49.404;11.152;2022-10-14T12:51:21;6.87;;;4.20;;
14768;SDS011;7476;49.404;11.152;2022-10-14T12:53:50;5.07;;;3.90;;
14768;SDS011;7476;49.404;11.152;2022-10-14T12:56:29;6.43;;;3.87;;
14768;SDS011;7476;49.404;11.152;2022-10-14T12:58:58;3.83;;;3.20;;
14768;SDS011;7476;49.404;11.152;2022-10-14T13:01:27;6.50;;;3.67;;
14768;SDS011;7476;49.404;11.152;2022-10-14T13:03:57;3.77;;;3.07;;
14768;SDS011;7476;49.404;11.152;2022-10-14T13:06:28;5.53;;;3.50;;
14768;SDS011;7476;49.404;11.152;2022-10-14T13:21:02;4.70;;;3.33;;
14768;SDS011;7476;49.404;11.152;2022-10-14T13:23:32;4.70;;;3.30;;
14768;SDS011;7476;49.404;11.152;2022-10-14T13:26:20;5.40;;;2.97;;
14768;SDS011;7476;49.404;11.152;2022-10-14T13:28:55;7.37;;;2.70;;
14768;SDS011;7476;49.404;11.152;2022-10-14T13:31:32;5.03;;;3.10;;
14768;SDS011;7476;49.404;11.152;2022-10-14T13:34:10;3.90;;;3.10;;
14768;SDS011;7476;49.404;11.152;2022-10-14T13:36:49;6.03;;;3.30;;
14768;SDS011;7476;49.404;11.152;2022-10-14T13:39:25;7.80;;;3.40;;
14768;SDS011;7476;49.404;11.152;2022-10-14T13:41:52;4.13;;;3.30;;
14768;SDS011;7476;49.404;11.152;2022-10-14T13:44:22;4.80;;;3.17;;
14768;SDS011;7476;49.404;11.152;2022-10-14T13:46:50;5.77;;;3.60;;
14768;SDS011;7476;49.404;11.152;2022-10-14T13:49:19;4.87;;;3.13;;
14768;SDS011;7476;49.404;11.152;2022-10-14T13:51:52;5.63;;;3.00;;
14768;SDS011;7476;49.404;11.152;2022-10-14T13:54:22;6.40;;;2.90;;
14768;SDS011;7476;49.404;11.152;2022-10-14T13:56:57;4.77;;;2.97;;
14768;SDS011;7476;49.404;11.152;2022-10-14T13:59:26;3.57;;;3.20;;
14768;SDS011;7476;49.404;11.152;2022-10-14T14:01:54;4.47;;;2.90;;
14768;SDS011;7476;49.404;11.152;2022-10-14T14:04:24;3.70;;;2.90;;
14768;SDS011;7476;49.404;11.152;2022-10-14T14:06:55;5.17;;;3.17;;
14768;SDS011;7476;49.404;11.152;2022-10-14T14:09:23;3.90;;;3.23;;
14768;SDS011;7476;49.404;11.152;2022-10-14T14:11:53;2.80;;;2.60;;
14768;SDS011;7476;49.404;11.152;2022-10-14T14:14:23;3.80;;;2.90;;
14768;SDS011;7476;49.404;11.152;2022-10-14T14:16:54;6.13;;;3.13;;
14768;SDS011;7476;49.404;11.152;2022-10-14T14:19:25;3.90;;;2.73;;
14768;SDS011;7476;49.404;11.152;2022-10-14T14:22:05;3.17;;;2.77;;
14768;SDS011;7476;49.404;11.152;2022-10-14T14:24:40;3.67;;;2.77;;
14768;SDS011;7476;49.404;11.152;2022-10-14T14:27:08;6.07;;;2.80;;
14768;SDS011;7476;49.404;11.152;2022-10-14T14:29:39;5.63;;;3.40;;
14768;SDS011;7476;49.404;11.152;2022-10-14T14:32:10;6.50;;;2.83;;
14768;SDS011;7476;49.404;11.152;2022-10-14T14:34:41;4.90;;;2.77;;
14768;SDS011;7476;49.404;11.152;2022-10-14T14:37:13;3.50;;;2.70;;
14768;SDS011;7476;49.404;11.152;2022-10-14T14:39:54;4.60;;;2.70;;
14768;SDS011;7476;49.404;11.152;2022-10-14T14:42:22;3.90;;;2.70;;
14768;SDS011;7476;49.404;11.152;2022-10-14T14:44:49;7.63;;;2.90;;
14768;SDS011;7476;49.404;11.152;2022-10-14T14:47:16;5.40;;;2.80;;
14768;SDS011;7476;49.404;11.152;2022-10-14T14:49:43;3.40;;;2.50;;
14768;SDS011;7476;49.404;11.152;2022-10-14T14:52:11;5.67;;;3.00;;
14768;SDS011;7476;49.404;11.152;2022-10-14T14:54:43;3.93;;;2.90;;
14768;SDS011;7476;49.404;11.152;2022-10-14T14:57:12;5.30;;;3.10;;
14768;SDS011;7476;49.404;11.152;2022-10-14T14:59:43;8.23;;;3.97;;
14768;SDS011;7476;49.404;11.152;2022-10-14T15:02:17;5.73;;;3.43;;
14768;SDS011;7476;49.404;11.152;2022-10-14T15:04:46;5.73;;;3.87;;
14768;SDS011;7476;49.404;11.152;2022-10-14T15:07:23;5.90;;;3.80;;
14768;SDS011;7476;49.404;11.152;2022-10-14T15:09:53;6.70;;;4.20;;
14768;SDS011;7476;49.404;11.152;2022-10-14T15:12:22;4.40;;;4.00;;
14768;SDS011;7476;49.404;11.152;2022-10-14T15:14:52;5.77;;;4.10;;